createdAt,value
2023-02-02T00:00:09.004Z,102114.06
2023-02-02T00:00:40.423Z,102106.25
2023-02-02T00:01:11.846Z,102109.78
2023-02-02T00:01:47.090Z,102112.16
2023-02-02T00:02:18.429Z,102117.59
2023-02-02T00:02:49.855Z,102107.38
2023-02-02T00:03:21.394Z,102113.59
2023-02-02T00:03:53.181Z,102106.25
2023-02-02T00:04:27.330Z,102107.84
2023-02-02T00:04:58.947Z,102107.38
2023-02-02T00:05:30.364Z,102108.66
2023-02-02T00:06:03.938Z,102116.78
2023-02-02T00:06:35.380Z,102114.72
2023-02-02T00:07:07.353Z,102117.09
2023-02-02T00:07:38.730Z,102117.91
2023-02-02T00:08:10.129Z,102112.78
2023-02-02T00:08:41.497Z,102122.41
2023-02-02T00:09:15.485Z,102113.91
2023-02-02T00:09:46.861Z,102123.63
2023-02-02T00:10:18.472Z,102113.78
2023-02-02T00:10:50.593Z,102109.28
2023-02-02T00:11:22.018Z,102112.00
2023-02-02T00:11:53.556Z,102107.69
2023-02-02T00:12:24.923Z,102119.69
2023-02-02T00:12:58.153Z,102118.53
2023-02-02T00:13:29.526Z,102115.81
2023-02-02T00:14:01.028Z,102115.81
2023-02-02T00:14:32.463Z,102113.91
2023-02-02T00:15:04.115Z,102123.16
2023-02-02T00:15:35.741Z,102121.25
2023-02-02T00:16:47.264Z,102120.13
2023-02-02T00:17:18.585Z,102118.53
2023-02-02T00:17:50.089Z,102112.31
2023-02-02T00:18:21.525Z,102117.41
2023-02-02T00:18:54.301Z,102120.94
2023-02-02T00:19:28.542Z,102113.78
2023-02-02T00:19:59.976Z,102112.66
2023-02-02T00:20:31.953Z,102114.91
2023-02-02T00:21:03.407Z,102112.19
2023-02-02T00:21:35.344Z,102118.53
2023-02-02T00:22:06.757Z,102112.31
2023-02-02T00:22:38.198Z,102122.41
2023-02-02T00:23:09.674Z,102113.78
2023-02-02T00:23:41.084Z,102113.47
2023-02-02T00:24:15.194Z,102125.56
2023-02-02T00:24:46.731Z,102117.75
2023-02-02T00:25:18.086Z,102113.13
2023-02-02T00:25:50.573Z,102122.03
2023-02-02T00:26:22.136Z,102123.97
2023-02-02T00:26:56.295Z,102119.69
2023-02-02T00:27:27.748Z,102116.63
2023-02-02T00:27:59.352Z,102113.47
2023-02-02T00:28:30.722Z,102110.28
2023-02-02T00:29:02.364Z,102111.56
2023-02-02T00:29:33.851Z,102112.31
2023-02-02T00:30:05.998Z,102115.81
2023-02-02T00:30:37.447Z,102120.13
2023-02-02T00:31:09.281Z,102113.91
2023-02-02T00:31:41.564Z,102120.13
2023-02-02T00:32:12.937Z,102116.63
2023-02-02T00:32:44.583Z,102111.56
2023-02-02T00:33:15.981Z,102112.31
2023-02-02T00:33:48.661Z,102116.97
2023-02-02T00:34:21.170Z,102104.53
2023-02-02T00:34:52.511Z,102115.03
2023-02-02T00:35:24.134Z,102111.56
2023-02-02T00:35:55.671Z,102109.97
2023-02-02T00:36:27.111Z,102116.19
2023-02-02T00:36:58.593Z,102112.19
2023-02-02T00:37:29.982Z,102114.09
2023-02-02T00:38:01.930Z,102112.19
2023-02-02T00:38:34.611Z,102120.78
2023-02-02T00:39:06.600Z,102113.47
2023-02-02T00:39:37.977Z,102114.09
2023-02-02T00:40:10.459Z,102113.78
2023-02-02T00:40:41.832Z,102115.69
2023-02-02T00:41:13.490Z,102114.09
2023-02-02T00:41:45.785Z,102116.00
2023-02-02T00:42:17.723Z,102112.50
2023-02-02T00:42:50.376Z,102110.59
2023-02-02T00:43:21.825Z,102116.00
2023-02-02T00:44:11.649Z,102115.22
2023-02-02T00:45:01.739Z,102116.81
2023-02-02T00:45:33.115Z,102120.63
2023-02-02T00:46:04.807Z,102111.72
2023-02-02T00:46:39.946Z,102118.25
2023-02-02T00:47:11.613Z,102114.72
2023-02-02T00:47:47.029Z,102118.25
2023-02-02T00:48:18.481Z,102115.03
2023-02-02T00:48:49.809Z,102122.53
2023-02-02T00:49:21.504Z,102116.66
2023-02-02T00:49:52.901Z,102112.81
2023-02-02T00:50:24.485Z,102115.53
2023-02-02T00:50:55.867Z,102117.91
2023-02-02T00:51:27.202Z,102113.63
2023-02-02T00:52:00.251Z,102110.41
2023-02-02T00:52:31.703Z,102104.69
2023-02-02T00:53:03.893Z,102116.81
2023-02-02T00:53:35.319Z,102115.53
2023-02-02T00:54:06.956Z,102112.81
2023-02-02T00:54:38.498Z,102114.41
2023-02-02T00:55:11.425Z,102118.25
2023-02-02T00:55:42.830Z,102114.41
2023-02-02T00:56:14.166Z,102120.31
2023-02-02T00:56:45.679Z,102112.03
2023-02-02T00:57:17.034Z,102124.63
2023-02-02T00:57:48.391Z,102119.53
2023-02-02T00:58:20.470Z,102123.81
2023-02-02T00:58:52.020Z,102110.91
2023-02-02T00:59:23.492Z,102117.13
2023-02-02T00:59:54.899Z,102113.44
2023-02-02T01:00:27.391Z,102121.44
2023-02-02T01:00:58.825Z,102116.66
2023-02-02T01:01:30.235Z,102116.00
2023-02-02T01:02:02.151Z,102115.22
2023-02-02T01:02:34.870Z,102118.72
2023-02-02T01:03:07.099Z,102126.84
2023-02-02T01:03:38.480Z,102129.56
2023-02-02T01:04:09.895Z,102122.22
2023-02-02T01:04:41.338Z,102118.72
2023-02-02T01:05:13.538Z,102122.06
2023-02-02T01:05:45.085Z,102120.47
2023-02-02T01:06:17.517Z,102138.50
2023-02-02T01:06:48.901Z,102129.09
2023-02-02T01:07:20.346Z,102118.06
2023-02-02T01:07:51.893Z,102125.09
2023-02-02T01:08:23.445Z,102127.97
2023-02-02T01:08:54.870Z,102125.75
2023-02-02T01:09:26.398Z,102133.88
2023-02-02T01:09:58.153Z,102123.66
2023-02-02T01:10:29.542Z,102123.66
2023-02-02T01:11:00.882Z,102123.66
2023-02-02T01:11:32.306Z,102125.25
2023-02-02T01:12:03.819Z,102125.09
2023-02-02T01:12:35.209Z,102130.69
2023-02-02T01:13:06.645Z,102122.06
2023-02-02T01:13:38.510Z,102116.16
2023-02-02T01:14:09.904Z,102120.78
2023-02-02T01:14:41.236Z,102121.91
2023-02-02T01:15:13.032Z,102123.50
2023-02-02T01:15:44.402Z,102121.91
2023-02-02T01:16:15.929Z,102124.94
2023-02-02T01:16:48.164Z,102120.78
2023-02-02T01:17:19.681Z,102124.59
2023-02-02T01:17:51.116Z,102126.34
2023-02-02T01:18:22.561Z,102125.72
2023-02-02T01:18:54.110Z,102123.66
2023-02-02T01:19:25.723Z,102128.75
2023-02-02T01:19:57.167Z,102129.53
2023-02-02T01:20:47.171Z,102124.44
2023-02-02T01:21:18.620Z,102124.44
2023-02-02T01:21:51.089Z,102125.56
2023-02-02T01:22:22.637Z,102127.00
2023-02-02T01:22:54.089Z,102127.47
2023-02-02T01:23:25.888Z,102125.88
2023-02-02T01:23:57.357Z,102126.66
2023-02-02T01:24:28.818Z,102125.38
2023-02-02T01:25:01.298Z,102133.22
2023-02-02T01:25:34.683Z,102139.75
2023-02-02T01:26:10.174Z,102130.81
2023-02-02T01:26:41.827Z,102128.75
2023-02-02T01:27:13.286Z,102131.47
2023-02-02T01:27:44.819Z,102138.16
2023-02-02T01:28:16.274Z,102131.78
2023-02-02T01:28:48.871Z,102133.06
2023-02-02T01:29:20.271Z,102131.78
2023-02-02T01:29:51.722Z,102130.66
2023-02-02T01:30:23.171Z,102132.41
2023-02-02T01:30:55.696Z,102132.09
2023-02-02T01:31:27.172Z,102137.22
2023-02-02T01:31:58.680Z,102141.81
2023-02-02T01:32:30.142Z,102125.41
2023-02-02T01:33:01.526Z,102127.00
2023-02-02T01:33:33.044Z,102131.94
2023-02-02T01:34:04.428Z,102131.94
2023-02-02T01:34:35.987Z,102133.03
2023-02-02T01:35:07.524Z,102134.31
2023-02-02T01:35:46.683Z,102136.88
2023-02-02T01:36:21.061Z,102136.56
2023-02-02T01:36:52.465Z,102136.06
2023-02-02T01:37:23.955Z,102130.97
2023-02-02T01:37:55.299Z,102137.50
2023-02-02T01:38:26.739Z,102127.47
2023-02-02T01:38:58.175Z,102136.06
2023-02-02T01:39:29.708Z,102141.50
2023-02-02T01:40:01.305Z,102139.56
2023-02-02T01:41:24.192Z,102141.50
2023-02-02T01:41:55.606Z,102136.06
2023-02-02T01:42:27.048Z,102141.81
2023-02-02T01:42:58.387Z,102143.41
2023-02-02T01:43:41.787Z,102137.97
2023-02-02T01:44:50.582Z,102136.38
2023-02-02T01:45:30.852Z,102139.41
2023-02-02T01:46:02.280Z,102142.59
2023-02-02T01:46:35.784Z,102140.69
2023-02-02T01:47:07.319Z,102134.47
2023-02-02T01:47:54.634Z,102134.47
2023-02-02T01:48:34.919Z,102141.00
2023-02-02T01:49:20.572Z,102141.31
2023-02-02T01:49:54.599Z,102139.41
2023-02-02T01:50:32.496Z,102144.34
2023-02-02T01:51:09.499Z,102143.53
2023-02-02T01:51:48.045Z,102140.03
2023-02-02T01:52:22.575Z,102136.06
2023-02-02T01:52:56.773Z,102140.84
2023-02-02T01:53:29.763Z,102137.19
2023-02-02T01:54:02.693Z,102142.13
2023-02-02T01:54:38.931Z,102137.34
2023-02-02T01:55:13.062Z,102137.19
2023-02-02T01:55:44.512Z,102149.13
2023-02-02T01:56:24.469Z,102142.91
2023-02-02T01:57:01.305Z,102137.50
2023-02-02T01:57:57.303Z,102144.19
2023-02-02T01:58:33.372Z,102144.50
2023-02-02T01:59:05.773Z,102148.03
2023-02-02T01:59:38.556Z,102145.31
2023-02-02T02:00:13.208Z,102137.19
2023-02-02T02:00:46.948Z,102145.31
2023-02-02T02:01:18.874Z,102144.03
2023-02-02T02:01:52.589Z,102147.53
2023-02-02T02:02:25.934Z,102147.53
2023-02-02T02:03:04.616Z,102140.22
2023-02-02T02:03:37.403Z,102139.09
2023-02-02T02:04:08.863Z,102146.44
2023-02-02T02:04:42.337Z,102145.63
2023-02-02T02:05:18.981Z,102148.03
2023-02-02T02:05:58.708Z,102134.47
2023-02-02T02:06:30.475Z,102144.50
2023-02-02T02:07:04.648Z,102148.03
2023-02-02T02:07:36.074Z,102142.91
2023-02-02T02:08:17.086Z,102143.72
2023-02-02T02:09:05.301Z,102146.75
2023-02-02T02:09:36.717Z,102139.09
2023-02-02T02:10:08.665Z,102139.09
2023-02-02T02:10:40.108Z,102140.53
2023-02-02T02:11:11.560Z,102141.31
2023-02-02T02:11:42.991Z,102148.66
2023-02-02T02:12:15.928Z,102141.63
2023-02-02T02:12:48.538Z,102132.72
2023-02-02T02:13:22.538Z,102145.31
2023-02-02T02:14:14.542Z,102135.59
2023-02-02T02:15:07.728Z,102142.28
2023-02-02T02:16:14.944Z,102137.19
2023-02-02T02:17:03.322Z,102130.97
2023-02-02T02:18:12.071Z,102133.69
2023-02-02T02:19:07.056Z,102132.88
2023-02-02T02:20:23.840Z,102133.19
2023-02-02T02:21:42.651Z,102130.50
2023-02-02T02:22:37.433Z,102132.09
2023-02-02T02:23:53.880Z,102134.00
2023-02-02T02:25:11.276Z,102124.75
2023-02-02T02:26:26.135Z,102131.28
2023-02-02T02:27:03.299Z,102126.66
2023-02-02T02:28:02.451Z,102130.16
2023-02-02T02:28:45.856Z,102122.06
2023-02-02T02:29:33.194Z,102123.66
2023-02-02T02:30:39.665Z,102119.34
2023-02-02T02:31:30.126Z,102123.66
2023-02-02T02:32:39.940Z,102122.84
2023-02-02T02:33:18.612Z,102122.84
2023-02-02T02:34:21.006Z,102114.72
2023-02-02T02:35:18.256Z,102119.34
2023-02-02T02:36:02.852Z,102117.75
2023-02-02T02:38:04.882Z,102121.25
2023-02-02T02:38:52.471Z,102113.44
2023-02-02T02:39:38.587Z,102111.53
2023-02-02T02:40:20.658Z,102111.84
2023-02-02T02:40:59.728Z,102114.56
2023-02-02T02:41:36.734Z,102119.97
2023-02-02T02:42:15.531Z,102114.25
2023-02-02T02:42:52.008Z,102115.66
2023-02-02T02:43:31.627Z,102110.88
2023-02-02T02:44:08.951Z,102112.16
2023-02-02T02:44:41.713Z,102110.56
2023-02-02T02:45:14.130Z,102105.94
2023-02-02T02:45:46.026Z,102099.25
2023-02-02T02:46:17.605Z,102112.47
2023-02-02T02:46:50.414Z,102100.66
2023-02-02T02:47:22.419Z,102101.63
2023-02-02T02:47:55.138Z,102101.63
2023-02-02T02:48:26.534Z,102094.44
2023-02-02T02:48:58.695Z,102097.66
2023-02-02T02:49:30.348Z,102100.03
2023-02-02T02:50:01.811Z,102097.66
2023-02-02T02:50:33.172Z,102102.25
2023-02-02T02:51:08.768Z,102102.75
2023-02-02T02:51:49.616Z,102107.38
2023-02-02T02:52:21.092Z,102097.66
2023-02-02T02:53:18.862Z,102100.03
2023-02-02T02:53:50.439Z,102107.84
2023-02-02T02:54:29.528Z,102100.84
2023-02-02T02:55:02.654Z,102096.84
2023-02-02T02:56:16.494Z,102098.44
2023-02-02T02:57:06.121Z,102097.81
2023-02-02T02:57:58.264Z,102098.94
2023-02-02T02:58:52.500Z,102097.00
2023-02-02T02:59:40.704Z,102095.41
2023-02-02T03:00:30.738Z,102091.91
2023-02-02T03:01:17.555Z,102093.03
2023-02-02T03:02:04.415Z,102096.84
2023-02-02T03:02:52.867Z,102100.03
2023-02-02T03:03:39.399Z,102100.03
2023-02-02T03:04:37.294Z,102104.66
2023-02-02T03:05:24.147Z,102107.84
2023-02-02T03:06:07.195Z,102103.22
2023-02-02T03:07:07.500Z,102097.00
2023-02-02T03:07:44.656Z,102096.22
2023-02-02T03:08:32.217Z,102100.53
2023-02-02T03:09:12.458Z,102099.41
2023-02-02T03:09:46.235Z,102105.63
2023-02-02T03:10:21.760Z,102095.91
2023-02-02T03:10:56.624Z,102109.13
2023-02-02T03:11:28.324Z,102116.16
2023-02-02T03:12:00.165Z,102104.03
2023-02-02T03:12:31.736Z,102107.84
2023-02-02T03:13:08.317Z,102109.44
2023-02-02T03:13:41.074Z,102110.25
2023-02-02T03:14:12.669Z,102114.72
2023-02-02T03:14:44.096Z,102118.53
2023-02-02T03:15:16.642Z,102108.81
2023-02-02T03:15:48.084Z,102122.06
2023-02-02T03:16:19.477Z,102121.25
2023-02-02T03:16:51.711Z,102111.03
2023-02-02T03:17:23.108Z,102112.00
2023-02-02T03:17:54.830Z,102119.34
2023-02-02T03:18:31.207Z,102110.41
2023-02-02T03:19:04.431Z,102118.53
2023-02-02T03:19:35.804Z,102112.00
2023-02-02T03:20:07.839Z,102119.81
2023-02-02T03:20:39.592Z,102115.84
2023-02-02T03:21:11.227Z,102134.97
2023-02-02T03:21:42.580Z,102126.03
2023-02-02T03:22:14.210Z,102122.84
2023-02-02T03:22:45.605Z,102122.53
2023-02-02T03:23:17.167Z,102125.88
2023-02-02T03:24:37.655Z,102122.84
2023-02-02T03:25:11.320Z,102129.88
2023-02-02T03:25:43.499Z,102129.88
2023-02-02T03:26:15.053Z,102127.94
2023-02-02T03:26:46.613Z,102132.25
2023-02-02T03:27:18.041Z,102133.81
2023-02-02T03:27:49.665Z,102138.13
2023-02-02T03:28:22.930Z,102137.31
2023-02-02T03:28:57.259Z,102134.31
2023-02-02T03:29:29.502Z,102126.84
2023-02-02T03:30:00.898Z,102128.41
2023-02-02T03:30:33.379Z,102133.19
2023-02-02T03:31:05.325Z,102132.41
2023-02-02T03:31:36.956Z,102129.38
2023-02-02T03:32:08.340Z,102128.56
2023-02-02T03:32:40.377Z,102135.91
2023-02-02T03:33:12.975Z,102129.69
2023-02-02T03:33:44.600Z,102127.78
2023-02-02T03:34:15.936Z,102135.09
2023-02-02T03:34:47.329Z,102134.00
2023-02-02T03:35:20.722Z,102130.47
2023-02-02T03:35:52.348Z,102132.09
2023-02-02T03:36:23.741Z,102137.19
2023-02-02T03:36:55.128Z,102135.28
2023-02-02T03:37:26.679Z,102125.88
2023-02-02T03:37:58.107Z,102136.38
2023-02-02T03:38:29.508Z,102127.78
2023-02-02T03:39:00.862Z,102137.66
2023-02-02T03:39:32.204Z,102133.38
2023-02-02T03:40:04.720Z,102133.03
2023-02-02T03:40:36.198Z,102142.28
2023-02-02T03:41:07.632Z,102124.44
2023-02-02T03:41:39.036Z,102127.16
2023-02-02T03:42:10.373Z,102128.75
2023-02-02T03:42:41.758Z,102133.03
2023-02-02T03:43:13.118Z,102125.22
2023-02-02T03:43:44.767Z,102129.53
2023-02-02T03:44:16.381Z,102134.66
2023-02-02T03:44:47.811Z,102124.91
2023-02-02T03:45:19.150Z,102123.50
2023-02-02T03:45:58.214Z,102128.13
2023-02-02T03:46:29.703Z,102126.50
2023-02-02T03:47:01.142Z,102126.19
2023-02-02T03:47:32.903Z,102125.72
2023-02-02T03:48:05.670Z,102130.50
2023-02-02T03:48:38.728Z,102130.50
2023-02-02T03:49:10.677Z,102127.00
2023-02-02T03:49:42.019Z,102131.31
2023-02-02T03:50:13.443Z,102129.41
2023-02-02T03:50:44.848Z,102127.00
2023-02-02T03:51:16.315Z,102122.38
2023-02-02T03:51:48.193Z,102127.31
2023-02-02T03:52:19.571Z,102130.50
2023-02-02T03:52:51.140Z,102134.81
2023-02-02T03:53:23.782Z,102131.00
2023-02-02T03:53:55.382Z,102128.28
2023-02-02T03:54:26.772Z,102129.88
2023-02-02T03:54:58.223Z,102127.97
2023-02-02T03:55:29.629Z,102131.00
2023-02-02T03:56:01.031Z,102134.19
2023-02-02T03:56:32.465Z,102122.84
2023-02-02T03:57:22.425Z,102125.88
2023-02-02T03:57:53.898Z,102133.38
2023-02-02T03:58:25.295Z,102126.06
2023-02-02T03:58:56.739Z,102126.38
2023-02-02T03:59:28.141Z,102127.97
2023-02-02T03:59:59.558Z,102126.84
2023-02-02T04:00:30.997Z,102123.34
2023-02-02T04:01:04.556Z,102124.94
2023-02-02T04:01:54.508Z,102115.53
2023-02-02T04:02:25.969Z,102128.09
2023-02-02T04:02:57.401Z,102123.03
2023-02-02T04:03:28.771Z,102120.31
2023-02-02T04:04:00.162Z,102115.22
2023-02-02T04:04:31.558Z,102120.63
2023-02-02T04:05:03.023Z,102124.63
2023-02-02T04:05:34.483Z,102124.63
2023-02-02T04:06:05.953Z,102121.13
2023-02-02T04:06:37.348Z,102113.31
2023-02-02T04:07:08.991Z,102119.97
2023-02-02T04:07:40.406Z,102114.41
2023-02-02T04:08:11.793Z,102119.19
2023-02-02T04:08:43.205Z,102114.56
2023-02-02T04:09:14.670Z,102109.31
2023-02-02T04:09:46.107Z,102117.59
2023-02-02T04:10:18.785Z,102119.97
2023-02-02T04:10:50.136Z,102111.72
2023-02-02T04:11:21.558Z,102116.00
2023-02-02T04:11:53.035Z,102117.59
2023-02-02T04:12:24.500Z,102117.59
2023-02-02T04:12:55.896Z,102113.78
2023-02-02T04:13:27.233Z,102114.41
2023-02-02T04:14:47.424Z,102119.53
2023-02-02T04:15:18.804Z,102126.19
2023-02-02T04:15:59.883Z,102113.78
2023-02-02T04:16:34.706Z,102119.97
2023-02-02T04:17:06.145Z,102123.81
2023-02-02T04:17:37.573Z,102121.91
2023-02-02T04:18:08.949Z,102121.44
2023-02-02T04:18:40.597Z,102123.81
2023-02-02T04:19:12.819Z,102116.16
2023-02-02T04:19:44.224Z,102116.81
2023-02-02T04:20:15.757Z,102121.56
2023-02-02T04:20:47.102Z,102114.25
2023-02-02T04:21:18.963Z,102110.41
2023-02-02T04:21:50.511Z,102110.72
2023-02-02T04:22:40.258Z,102119.34
2023-02-02T04:23:11.611Z,102114.72
2023-02-02T04:23:43.003Z,102100.06
2023-02-02T04:24:15.328Z,102104.69
2023-02-02T04:24:46.908Z,102103.06
2023-02-02T04:25:18.319Z,102106.59
2023-02-02T04:25:51.331Z,102103.88
2023-02-02T04:26:26.048Z,102100.06
2023-02-02T04:26:57.413Z,102095.75
2023-02-02T04:27:31.479Z,102095.75
2023-02-02T04:28:03.031Z,102103.56
2023-02-02T04:28:34.677Z,102098.94
2023-02-02T04:29:06.219Z,102095.25
2023-02-02T04:29:37.665Z,102089.41
2023-02-02T04:30:10.181Z,102099.25
2023-02-02T04:30:41.809Z,102093.84
2023-02-02T04:31:13.357Z,102099.88
2023-02-02T04:31:44.892Z,102104.34
2023-02-02T04:32:17.557Z,102105.47
2023-02-02T04:32:51.056Z,102108.66
2023-02-02T04:33:24.147Z,102106.75
2023-02-02T04:33:59.315Z,102107.06
2023-02-02T04:34:30.730Z,102111.38
2023-02-02T04:35:02.238Z,102113.78
2023-02-02T04:35:33.744Z,102118.38
2023-02-02T04:36:05.642Z,102119.19
2023-02-02T04:36:37.183Z,102127.00
2023-02-02T04:37:08.725Z,102122.38
2023-02-02T04:37:40.127Z,102120.78
2023-02-02T04:38:12.145Z,102124.28
2023-02-02T04:38:43.558Z,102128.59
2023-02-02T04:39:15.082Z,102114.09
2023-02-02T04:39:46.540Z,102121.41
2023-02-02T04:40:18.256Z,102122.69
2023-02-02T04:40:49.739Z,102126.22
2023-02-02T04:41:22.451Z,102120.47
2023-02-02T04:41:53.847Z,102123.19
2023-02-02T04:42:25.270Z,102132.91
2023-02-02T04:42:57.902Z,102123.97
2023-02-02T04:43:29.266Z,102119.19
2023-02-02T04:44:00.629Z,102131.78
2023-02-02T04:44:32.018Z,102127.47
2023-02-02T04:45:03.626Z,102122.69
2023-02-02T04:45:35.332Z,102127.47
2023-02-02T04:46:06.823Z,102123.19
2023-02-02T04:46:38.247Z,102129.56
2023-02-02T04:47:09.697Z,102124.28
2023-02-02T04:47:41.132Z,102131.16
2023-02-02T04:48:12.604Z,102127.97
2023-02-02T04:48:44.069Z,102126.84
2023-02-02T04:49:15.666Z,102130.03
2023-02-02T04:49:47.044Z,102127.66
2023-02-02T04:50:18.587Z,102138.97
2023-02-02T04:50:50.134Z,102134.66
2023-02-02T04:51:21.497Z,102137.88
2023-02-02T04:51:52.893Z,102128.94
2023-02-02T04:52:24.454Z,102130.84
2023-02-02T04:53:44.732Z,102138.66
2023-02-02T04:54:16.212Z,102146.78
2023-02-02T04:54:47.576Z,102138.66
2023-02-02T04:55:19.105Z,102145.66
2023-02-02T04:55:50.707Z,102134.81
2023-02-02T04:56:22.673Z,102137.88
2023-02-02T04:56:54.063Z,102144.53
2023-02-02T04:57:25.437Z,102136.41
2023-02-02T04:57:56.774Z,102139.44
2023-02-02T04:58:28.151Z,102141.03
2023-02-02T04:58:59.740Z,102139.09
2023-02-02T04:59:31.120Z,102137.19
2023-02-02T05:00:03.340Z,102139.59
2023-02-02T05:00:34.733Z,102142.31
2023-02-02T05:01:18.012Z,102139.59
2023-02-02T05:01:50.896Z,102139.91
2023-02-02T05:02:22.246Z,102138.31
2023-02-02T05:02:53.601Z,102140.38
2023-02-02T05:03:25.051Z,102145.00
2023-02-02T05:03:57.107Z,102142.31
2023-02-02T05:04:28.737Z,102133.69
2023-02-02T05:05:00.232Z,102141.97
2023-02-02T05:05:31.868Z,102143.59
2023-02-02T05:06:04.314Z,102138.47
2023-02-02T05:06:35.803Z,102144.38
2023-02-02T05:07:07.191Z,102140.69
2023-02-02T05:07:40.264Z,102141.97
2023-02-02T05:08:12.919Z,102141.97
2023-02-02T05:08:44.473Z,102146.28
2023-02-02T05:09:15.907Z,102144.69
2023-02-02T05:09:47.360Z,102141.19
2023-02-02T05:10:18.831Z,102149.00
2023-02-02T05:10:50.679Z,102144.22
2023-02-02T05:11:23.503Z,102148.19
2023-02-02T05:11:54.948Z,102153.31
2023-02-02T05:12:26.424Z,102143.91
2023-02-02T05:12:57.848Z,102141.66
2023-02-02T05:13:29.372Z,102145.50
2023-02-02T05:14:00.972Z,102141.66
2023-02-02T05:14:32.448Z,102141.97
2023-02-02T05:15:54.702Z,102149.81
2023-02-02T05:16:28.798Z,102154.09
2023-02-02T05:17:00.658Z,102146.78
2023-02-02T05:17:32.500Z,102149.16
2023-02-02T05:18:03.855Z,102146.47
2023-02-02T05:18:35.290Z,102150.75
2023-02-02T05:19:06.635Z,102153.00
2023-02-02T05:19:38.185Z,102153.78
2023-02-02T05:20:10.267Z,102155.38
2023-02-02T05:20:41.603Z,102143.25
2023-02-02T05:21:13.027Z,102149.16
2023-02-02T05:21:45.377Z,102149.66
2023-02-02T05:22:16.778Z,102139.44
2023-02-02T05:22:51.215Z,102145.34
2023-02-02T05:23:23.010Z,102143.75
2023-02-02T05:23:54.517Z,102138.81
2023-02-02T05:24:27.546Z,102141.84
2023-02-02T05:24:59.036Z,102137.22
2023-02-02T05:25:30.459Z,102131.31
2023-02-02T05:26:01.906Z,102132.09
2023-02-02T05:26:33.469Z,102133.38
2023-02-02T05:27:05.408Z,102134.66
2023-02-02T05:27:36.843Z,102124.75
2023-02-02T05:28:08.395Z,102128.59
2023-02-02T05:28:41.090Z,102133.38
2023-02-02T05:29:12.425Z,102139.91
2023-02-02T05:29:43.816Z,102131.00
2023-02-02T05:30:15.720Z,102137.03
2023-02-02T05:30:47.605Z,102143.75
2023-02-02T05:31:19.461Z,102143.44
2023-02-02T05:31:50.943Z,102149.66
2023-02-02T05:32:22.428Z,102139.91
2023-02-02T05:32:53.767Z,102142.63
2023-02-02T05:33:25.241Z,102138.63
2023-02-02T05:33:56.877Z,102149.66
2023-02-02T05:34:28.247Z,102141.50
2023-02-02T05:34:59.651Z,102141.84
2023-02-02T05:35:31.040Z,102139.44
2023-02-02T05:36:02.688Z,102145.34
2023-02-02T05:36:34.089Z,102145.81
2023-02-02T05:37:05.517Z,102149.34
2023-02-02T05:37:37.068Z,102147.72
2023-02-02T05:38:08.480Z,102135.94
2023-02-02T05:38:39.833Z,102146.47
2023-02-02T05:39:11.495Z,102146.94
2023-02-02T05:39:42.865Z,102142.47
2023-02-02T05:40:14.278Z,102143.75
2023-02-02T05:40:50.465Z,102149.66
2023-02-02T05:41:28.251Z,102138.00
2023-02-02T05:42:04.092Z,102139.44
2023-02-02T05:42:35.599Z,102145.66
2023-02-02T05:43:07.046Z,102137.53
2023-02-02T05:43:38.540Z,102135.13
2023-02-02T05:44:12.944Z,102141.50
2023-02-02T05:44:44.470Z,102141.50
2023-02-02T05:45:16.220Z,102144.22
2023-02-02T05:45:47.607Z,102146.13
2023-02-02T05:46:19.202Z,102139.59
2023-02-02T05:47:09.172Z,102140.09
2023-02-02T05:47:40.693Z,102154.75
2023-02-02T05:48:14.224Z,102147.41
2023-02-02T05:48:45.629Z,102145.81
2023-02-02T05:49:16.983Z,102151.25
2023-02-02T05:49:49.859Z,102148.53
2023-02-02T05:50:21.338Z,102150.94
2023-02-02T05:51:20.017Z,102147.91
2023-02-02T05:51:57.180Z,102145.50
2023-02-02T05:52:34.602Z,102146.13
2023-02-02T05:53:05.956Z,102153.97
2023-02-02T05:53:37.530Z,102147.41
2023-02-02T05:54:08.961Z,102143.91
2023-02-02T05:54:40.339Z,102150.94
2023-02-02T05:55:11.741Z,102144.72
2023-02-02T05:55:43.085Z,102148.06
2023-02-02T05:56:15.760Z,102146.47
2023-02-02T05:56:48.481Z,102151.09
2023-02-02T05:57:19.964Z,102143.25
2023-02-02T05:57:51.446Z,102150.75
2023-02-02T05:58:22.988Z,102155.88
2023-02-02T05:58:54.447Z,102151.41
2023-02-02T05:59:26.038Z,102156.66
2023-02-02T05:59:57.412Z,102152.34
2023-02-02T06:00:28.945Z,102157.31
2023-02-02T06:01:00.445Z,102148.69
2023-02-02T06:01:31.834Z,102149.81
2023-02-02T06:02:03.286Z,102157.31
2023-02-02T06:02:34.679Z,102141.97
2023-02-02T06:03:06.115Z,102153.63
2023-02-02T06:03:37.748Z,102153.63
2023-02-02T06:04:09.509Z,102150.91
2023-02-02T06:04:41.007Z,102148.19
2023-02-02T06:05:12.522Z,102157.94
2023-02-02T06:05:44.053Z,102153.31
2023-02-02T06:06:15.579Z,102157.31
2023-02-02T06:06:48.098Z,102161.59
2023-02-02T06:07:19.641Z,102160.00
2023-02-02T06:07:51.133Z,102144.38
2023-02-02T06:08:22.526Z,102153.78
2023-02-02T06:08:54.011Z,102156.19
2023-02-02T06:09:25.951Z,102160.00
2023-02-02T06:09:58.257Z,102163.53
2023-02-02T06:10:31.592Z,102160.81
2023-02-02T06:11:14.780Z,102164.16
2023-02-02T06:11:46.662Z,102160.66
2023-02-02T06:12:18.925Z,102154.41
2023-02-02T06:12:50.275Z,102157.94
2023-02-02T06:13:22.730Z,102148.19
2023-02-02T06:13:54.143Z,102159.53
2023-02-02T06:14:25.653Z,102164.47
2023-02-02T06:14:57.273Z,102152.81
2023-02-02T06:15:29.338Z,102160.66
2023-02-02T06:16:00.871Z,102161.13
2023-02-02T06:16:32.273Z,102161.28
2023-02-02T06:17:03.821Z,102163.03
2023-02-02T06:17:35.219Z,102159.38
2023-02-02T06:18:08.296Z,102158.25
2023-02-02T06:18:39.865Z,102169.25
2023-02-02T06:19:11.222Z,102162.06
2023-02-02T06:19:42.630Z,102159.84
2023-02-02T06:20:14.063Z,102164.47
2023-02-02T06:20:47.058Z,102154.75
2023-02-02T06:21:19.908Z,102164.94
2023-02-02T06:21:51.330Z,102167.19
2023-02-02T06:22:22.699Z,102160.66
2023-02-02T06:22:54.277Z,102162.25
2023-02-02T06:23:25.941Z,102165.91
2023-02-02T06:23:57.942Z,102160.66
2023-02-02T06:24:29.480Z,102168.63
2023-02-02T06:25:01.058Z,102163.34
2023-02-02T06:25:32.778Z,102168.78
2023-02-02T06:26:04.514Z,102164.00
2023-02-02T06:26:36.395Z,102172.91
2023-02-02T06:27:07.894Z,102169.88
2023-02-02T06:27:39.280Z,102164.78
2023-02-02T06:28:10.686Z,102170.69
2023-02-02T06:28:43.135Z,102160.78
2023-02-02T06:29:14.535Z,102167.19
2023-02-02T06:29:46.002Z,102167.50
2023-02-02T06:30:17.682Z,102178.03
2023-02-02T06:30:49.161Z,102164.31
2023-02-02T06:31:21.568Z,102173.72
2023-02-02T06:31:53.087Z,102171.81
2023-02-02T06:32:24.638Z,102171.31
2023-02-02T06:32:56.046Z,102181.06
2023-02-02T06:33:27.404Z,102168.63
2023-02-02T06:33:58.936Z,102174.34
2023-02-02T06:34:30.282Z,102174.34